createdAt,value
2023-12-08T00:00:47.337Z,9.00
2023-12-08T00:03:19.624Z,9.00
2023-12-08T00:05:51.931Z,9.10
2023-12-08T00:08:24.197Z,9.10
2023-12-08T00:10:59.085Z,9.10
2023-12-08T00:13:31.287Z,9.10
2023-12-08T00:16:04.501Z,9.20
2023-12-08T00:18:37.186Z,9.20
2023-12-08T00:21:09.427Z,9.20
2023-12-08T00:23:41.623Z,9.20
2023-12-08T00:26:16.486Z,9.20
2023-12-08T00:28:49.008Z,9.20
2023-12-08T00:31:21.565Z,9.10
2023-12-08T00:33:53.947Z,8.80
2023-12-08T00:36:26.314Z,8.50
2023-12-08T00:38:58.512Z,8.10
2023-12-08T00:41:33.442Z,7.60
2023-12-08T00:44:06.144Z,7.30
2023-12-08T00:46:38.345Z,6.90
2023-12-08T00:49:10.656Z,6.70
2023-12-08T00:51:42.983Z,6.40
2023-12-08T00:54:15.975Z,6.10
2023-12-08T00:56:50.808Z,5.90
2023-12-08T00:59:23.007Z,5.70
2023-12-08T01:01:55.161Z,5.50
2023-12-08T01:04:27.455Z,5.40
2023-12-08T01:06:59.687Z,5.20
2023-12-08T01:09:31.901Z,5.10
2023-12-08T01:12:07.630Z,5.00
2023-12-08T01:14:39.940Z,4.80
2023-12-08T01:17:12.149Z,4.70
2023-12-08T01:19:44.366Z,4.60
2023-12-08T01:22:16.713Z,4.50
2023-12-08T01:24:49.922Z,4.40
2023-12-08T01:27:25.313Z,4.30
2023-12-08T01:29:57.731Z,4.30
2023-12-08T01:32:29.984Z,4.30
2023-12-08T01:35:02.261Z,4.20
2023-12-08T01:37:34.429Z,4.20
2023-12-08T01:40:08.185Z,4.10
2023-12-08T01:42:46.024Z,4.10
2023-12-08T01:45:18.660Z,4.10
2023-12-08T01:47:51.174Z,4.00
2023-12-08T01:50:24.030Z,4.00
2023-12-08T01:52:56.258Z,4.00
2023-12-08T01:55:29.268Z,4.00
2023-12-08T01:58:04.668Z,4.00
2023-12-08T02:00:37.694Z,4.00
2023-12-08T02:03:10.689Z,3.90
2023-12-08T02:05:48.626Z,3.90
2023-12-08T02:08:21.967Z,3.90
2023-12-08T02:10:55.243Z,3.90
2023-12-08T02:13:30.277Z,3.90
2023-12-08T02:16:09.347Z,3.90
2023-12-08T02:18:42.744Z,3.90
2023-12-08T02:21:16.195Z,3.90
2023-12-08T02:23:51.405Z,3.90
2023-12-08T02:26:23.763Z,3.90
2023-12-08T02:28:56.418Z,3.80
2023-12-08T02:31:36.709Z,3.90
2023-12-08T02:34:11.389Z,3.90
2023-12-08T02:36:45.740Z,3.80
2023-12-08T02:39:21.781Z,3.90
2023-12-08T02:41:54.036Z,3.80
2023-12-08T02:44:26.249Z,3.80
2023-12-08T02:46:58.457Z,3.80
2023-12-08T02:49:30.837Z,3.80
2023-12-08T02:52:03.174Z,3.80
2023-12-08T02:54:38.046Z,3.90
2023-12-08T02:57:10.588Z,3.80
2023-12-08T02:59:42.905Z,3.80
2023-12-08T03:02:15.183Z,3.80
2023-12-08T03:04:47.527Z,3.80
2023-12-08T03:07:19.745Z,3.80
2023-12-08T03:09:54.672Z,3.80
2023-12-08T03:12:26.876Z,3.80
2023-12-08T03:14:59.131Z,3.90
2023-12-08T03:17:31.543Z,3.90
2023-12-08T03:20:04.813Z,3.90
2023-12-08T03:22:37.074Z,3.90
2023-12-08T03:25:12.308Z,3.80
2023-12-08T03:27:44.525Z,3.80
2023-12-08T03:30:17.299Z,3.80
2023-12-08T03:32:49.736Z,3.80
2023-12-08T03:35:22.022Z,3.80
2023-12-08T03:37:54.255Z,3.70
2023-12-08T03:40:29.177Z,3.70
2023-12-08T03:43:01.356Z,3.70
2023-12-08T03:45:33.943Z,3.70
2023-12-08T03:48:06.501Z,3.70
2023-12-08T03:50:38.825Z,3.70
2023-12-08T03:53:11.014Z,3.70
2023-12-08T03:55:45.830Z,3.70
2023-12-08T03:58:18.011Z,3.70
2023-12-08T04:00:50.373Z,3.70
2023-12-08T04:03:22.789Z,3.70
2023-12-08T04:05:55.100Z,3.70
2023-12-08T04:08:27.288Z,3.70
2023-12-08T04:11:02.292Z,3.70
2023-12-08T04:13:34.988Z,3.80
2023-12-08T04:16:09.114Z,3.70
2023-12-08T04:18:41.518Z,3.70
2023-12-08T04:21:18.219Z,3.70
2023-12-08T04:23:50.390Z,3.80
2023-12-08T04:26:26.536Z,3.70
2023-12-08T04:28:58.801Z,3.80
2023-12-08T04:31:31.006Z,3.80
2023-12-08T04:34:03.382Z,3.80
2023-12-08T04:36:35.701Z,3.70
2023-12-08T04:39:07.910Z,3.80
2023-12-08T04:41:42.760Z,3.70
2023-12-08T04:44:14.937Z,3.80
2023-12-08T04:46:47.124Z,3.80
2023-12-08T04:49:20.179Z,3.80
2023-12-08T04:51:52.599Z,3.80
2023-12-08T04:54:24.742Z,3.80
2023-12-08T04:56:59.371Z,3.80
2023-12-08T04:59:31.565Z,3.80
2023-12-08T05:02:03.945Z,3.80
2023-12-08T05:04:36.239Z,3.80
2023-12-08T05:07:08.785Z,3.80
2023-12-08T05:09:40.965Z,3.80
2023-12-08T05:12:27.720Z,3.90
2023-12-08T05:15:03.658Z,3.90
2023-12-08T05:17:36.173Z,3.90
2023-12-08T05:20:09.507Z,3.90
2023-12-08T05:22:44.572Z,3.90
2023-12-08T05:25:16.953Z,3.90
2023-12-08T05:27:51.967Z,3.90
2023-12-08T05:30:31.835Z,3.90
2023-12-08T05:33:04.389Z,3.90
2023-12-08T05:35:36.720Z,3.90
2023-12-08T05:38:12.865Z,3.90
2023-12-08T05:40:45.408Z,3.90
2023-12-08T05:43:20.395Z,3.90
2023-12-08T05:45:56.737Z,3.90
2023-12-08T05:48:29.088Z,3.90
2023-12-08T05:51:01.330Z,3.90
2023-12-08T05:53:41.473Z,3.90
2023-12-08T05:56:13.680Z,4.00
2023-12-08T05:58:48.680Z,4.00
2023-12-08T06:01:24.183Z,4.00
2023-12-08T06:03:56.472Z,4.00
2023-12-08T06:06:33.400Z,4.00
2023-12-08T06:09:05.914Z,4.00
2023-12-08T06:11:39.028Z,4.00
2023-12-08T06:14:13.843Z,4.00
2023-12-08T06:16:48.640Z,4.00
2023-12-08T06:19:20.901Z,4.00
2023-12-08T06:21:53.181Z,4.00
2023-12-08T06:24:29.228Z,4.00
2023-12-08T06:27:01.548Z,4.00
2023-12-08T06:29:36.452Z,3.90
2023-12-08T06:32:15.363Z,3.90
2023-12-08T06:34:47.637Z,3.90
2023-12-08T06:37:19.859Z,3.90
2023-12-08T06:39:56.621Z,3.90
2023-12-08T06:42:28.807Z,3.90
2023-12-08T06:45:04.189Z,3.90
2023-12-08T06:47:42.238Z,3.90
2023-12-08T06:50:24.262Z,3.90
2023-12-08T06:53:02.567Z,3.90
2023-12-08T06:55:34.727Z,3.90
2023-12-08T06:58:07.067Z,3.80
2023-12-08T07:00:48.164Z,3.80
2023-12-08T07:03:27.635Z,3.80
2023-12-08T07:06:00.127Z,3.80
2023-12-08T07:08:32.556Z,3.80
2023-12-08T07:11:13.972Z,3.80
2023-12-08T07:13:55.112Z,3.80
2023-12-08T07:16:39.084Z,3.80
2023-12-08T07:19:14.592Z,3.80
2023-12-08T07:21:47.085Z,3.70
2023-12-08T07:24:19.746Z,3.80
2023-12-08T07:26:56.262Z,3.70
2023-12-08T07:29:28.848Z,3.70
2023-12-08T07:32:05.240Z,3.70
2023-12-08T07:34:40.697Z,3.70
2023-12-08T07:37:18.994Z,3.70
2023-12-08T07:39:53.869Z,3.70
2023-12-08T07:42:26.260Z,3.80
2023-12-08T07:45:02.300Z,3.80
2023-12-08T07:47:46.788Z,3.80
2023-12-08T07:50:30.282Z,3.80
2023-12-08T07:53:11.986Z,3.80
2023-12-08T07:55:50.500Z,3.80
2023-12-08T07:58:26.962Z,3.90
2023-12-08T08:00:59.502Z,3.90
2023-12-08T08:03:34.643Z,3.90
2023-12-08T08:06:16.393Z,3.90
2023-12-08T08:08:57.825Z,3.90
2023-12-08T08:11:39.138Z,4.00
2023-12-08T08:14:17.411Z,4.00
2023-12-08T08:17:00.190Z,4.00
2023-12-08T08:19:41.681Z,4.00
2023-12-08T08:22:29.668Z,4.00
2023-12-08T08:25:05.848Z,4.00
2023-12-08T08:27:40.961Z,4.00
2023-12-08T08:30:14.060Z,4.00
2023-12-08T08:32:46.580Z,4.10
2023-12-08T08:35:27.683Z,4.10
2023-12-08T08:38:08.845Z,4.10
2023-12-08T08:40:50.240Z,4.10
2023-12-08T08:43:31.603Z,4.10
2023-12-08T08:46:15.540Z,4.20
2023-12-08T08:48:51.217Z,4.20
2023-12-08T08:51:31.002Z,4.20
2023-12-08T08:54:03.731Z,4.20
2023-12-08T08:56:38.358Z,4.20
2023-12-08T08:59:14.255Z,4.20
2023-12-08T09:01:46.631Z,4.20
2023-12-08T09:04:19.222Z,4.30
2023-12-08T09:07:02.726Z,4.30
2023-12-08T09:09:41.241Z,4.30
2023-12-08T09:12:15.014Z,4.30
2023-12-08T09:14:47.342Z,4.30
2023-12-08T09:17:22.428Z,4.30
2023-12-08T09:20:00.696Z,4.30
2023-12-08T09:22:45.947Z,4.30
2023-12-08T09:25:24.241Z,4.30
2023-12-08T09:27:56.300Z,4.30
2023-12-08T09:30:28.758Z,4.30
2023-12-08T09:33:10.950Z,4.30
2023-12-08T09:35:49.219Z,4.30
2023-12-08T09:38:34.429Z,4.30
2023-12-08T09:41:10.714Z,4.30
2023-12-08T09:43:58.508Z,4.30
2023-12-08T09:46:36.168Z,4.30
2023-12-08T09:49:29.805Z,4.40
2023-12-08T09:52:02.566Z,4.40
2023-12-08T09:54:41.178Z,4.40
2023-12-08T09:57:23.018Z,4.40
2023-12-08T10:00:07.310Z,4.40
2023-12-08T10:02:40.643Z,4.50
2023-12-08T10:05:20.977Z,4.50
2023-12-08T10:08:00.841Z,4.50
2023-12-08T10:10:44.779Z,4.50
2023-12-08T10:13:24.655Z,4.50
2023-12-08T10:15:57.538Z,4.60
2023-12-08T10:18:31.368Z,4.50
2023-12-08T10:21:17.568Z,4.50
2023-12-08T10:24:01.872Z,4.50
2023-12-08T10:26:36.909Z,4.60
2023-12-08T10:29:12.498Z,4.60
2023-12-08T10:31:54.092Z,4.60
2023-12-08T10:34:35.424Z,4.60
2023-12-08T10:37:22.669Z,4.70
2023-12-08T10:39:55.360Z,4.70
2023-12-08T10:42:36.517Z,4.70
2023-12-08T10:45:12.018Z,4.80
2023-12-08T10:47:45.950Z,4.80
2023-12-08T10:50:22.022Z,4.80
2023-12-08T10:52:58.084Z,4.90
2023-12-08T10:55:30.251Z,4.90
2023-12-08T10:58:09.091Z,4.90
2023-12-08T11:00:44.020Z,4.90
2023-12-08T11:03:26.452Z,4.90
2023-12-08T11:06:05.294Z,5.00
2023-12-08T11:08:46.348Z,5.10
2023-12-08T11:11:19.318Z,5.10
2023-12-08T11:14:09.899Z,5.10
2023-12-08T11:16:59.114Z,5.10
2023-12-08T11:19:33.287Z,5.20
2023-12-08T11:22:11.984Z,5.30
2023-12-08T11:24:55.628Z,5.30
2023-12-08T11:27:50.955Z,5.30
2023-12-08T11:30:40.631Z,5.30
2023-12-08T11:33:23.612Z,5.40
2023-12-08T11:36:07.768Z,5.40
2023-12-08T11:38:40.071Z,5.40
2023-12-08T11:41:18.427Z,5.50
2023-12-08T11:43:51.061Z,5.50
2023-12-08T11:46:26.610Z,5.50
2023-12-08T11:49:04.552Z,5.60
2023-12-08T11:52:07.802Z,5.70
2023-12-08T11:55:08.052Z,5.70
2023-12-08T11:58:08.760Z,5.70
2023-12-08T12:00:50.316Z,5.70
2023-12-08T12:03:28.307Z,5.70
2023-12-08T12:06:06.454Z,5.80
2023-12-08T12:08:38.937Z,5.80
2023-12-08T12:11:11.293Z,5.80
2023-12-08T12:13:44.600Z,5.80
2023-12-08T12:16:20.861Z,5.80
2023-12-08T12:18:56.256Z,5.90
2023-12-08T12:21:39.797Z,5.90
2023-12-08T12:24:15.251Z,5.90
2023-12-08T12:26:47.653Z,5.90
2023-12-08T12:29:19.922Z,6.00
2023-12-08T12:31:52.703Z,6.00
2023-12-08T12:34:27.950Z,6.00
2023-12-08T12:37:01.254Z,6.10
2023-12-08T12:39:39.846Z,6.10
2023-12-08T12:42:12.259Z,6.10
2023-12-08T12:44:46.032Z,6.10
2023-12-08T12:47:22.469Z,6.10
2023-12-08T12:50:05.998Z,6.10
2023-12-08T12:52:41.227Z,6.10
2023-12-08T12:55:24.528Z,6.20
2023-12-08T12:57:56.750Z,6.20
2023-12-08T13:00:36.892Z,6.20
2023-12-08T13:03:10.765Z,6.20
2023-12-08T13:05:50.430Z,6.20
2023-12-08T13:08:23.537Z,6.30
2023-12-08T13:10:58.658Z,6.30
2023-12-08T13:13:36.371Z,6.30
2023-12-08T13:16:18.925Z,6.30
2023-12-08T13:19:01.647Z,6.30
2023-12-08T13:21:45.646Z,6.30
2023-12-08T13:24:20.836Z,6.40
2023-12-08T13:27:03.694Z,6.40
2023-12-08T13:29:36.045Z,6.40
2023-12-08T13:32:08.420Z,6.50
2023-12-08T13:34:41.905Z,6.50
2023-12-08T13:37:35.120Z,6.50
2023-12-08T13:40:13.397Z,6.50
2023-12-08T13:42:45.768Z,6.50
2023-12-08T13:45:18.171Z,6.60
2023-12-08T13:47:50.726Z,6.60
2023-12-08T13:50:23.064Z,6.60
2023-12-08T13:52:57.946Z,6.60
2023-12-08T13:55:30.136Z,6.60
2023-12-08T13:58:02.395Z,6.70
2023-12-08T14:00:35.017Z,6.70
2023-12-08T14:03:07.661Z,6.70
2023-12-08T14:05:39.980Z,6.70
2023-12-08T14:08:17.216Z,6.70
2023-12-08T14:10:49.390Z,6.70
2023-12-08T14:13:21.603Z,6.70
2023-12-08T14:15:57.786Z,6.70
2023-12-08T14:18:30.187Z,6.70
2023-12-08T14:21:02.588Z,6.70
2023-12-08T14:23:43.357Z,6.70
2023-12-08T14:26:15.655Z,6.70
2023-12-08T14:28:48.092Z,6.70
2023-12-08T14:31:20.318Z,6.70
2023-12-08T14:33:53.903Z,6.70
2023-12-08T14:36:26.414Z,6.70
2023-12-08T14:39:01.358Z,6.70
2023-12-08T14:41:35.052Z,6.70
2023-12-08T14:44:07.261Z,6.70
2023-12-08T14:46:40.053Z,6.70
2023-12-08T14:49:12.958Z,6.70
2023-12-08T14:51:45.565Z,6.70
2023-12-08T14:54:26.758Z,6.70
2023-12-08T14:57:07.461Z,6.70
2023-12-08T14:59:39.955Z,6.70
2023-12-08T15:02:12.357Z,6.70
2023-12-08T15:04:44.590Z,6.80
2023-12-08T15:07:17.220Z,6.70
2023-12-08T15:09:52.297Z,6.80
2023-12-08T15:12:24.604Z,6.80
2023-12-08T15:14:56.792Z,6.70
2023-12-08T15:17:29.218Z,6.80
2023-12-08T15:20:07.614Z,6.80
2023-12-08T15:22:41.183Z,6.80
2023-12-08T15:25:16.200Z,6.80
2023-12-08T15:27:49.787Z,6.80
2023-12-08T15:30:23.819Z,6.80
2023-12-08T15:32:56.117Z,6.80
2023-12-08T15:35:28.328Z,6.80
2023-12-08T15:38:00.524Z,6.80
2023-12-08T15:40:37.586Z,6.80
2023-12-08T15:43:09.902Z,6.80
2023-12-08T15:45:42.654Z,6.80
2023-12-08T15:48:17.341Z,6.80
2023-12-08T15:50:50.107Z,6.80
2023-12-08T15:53:22.502Z,6.80
2023-12-08T15:56:02.412Z,6.80
2023-12-08T15:58:34.829Z,6.80
2023-12-08T16:01:08.222Z,6.80
2023-12-08T16:03:40.775Z,6.80
2023-12-08T16:06:16.587Z,6.80
2023-12-08T16:08:48.939Z,6.80
2023-12-08T16:11:32.582Z,6.80
2023-12-08T16:14:09.188Z,6.80
2023-12-08T16:16:43.820Z,6.80
2023-12-08T16:19:19.642Z,6.80
2023-12-08T16:21:52.012Z,6.80
2023-12-08T16:24:24.331Z,6.80
2023-12-08T16:26:59.457Z,6.80
2023-12-08T16:29:31.869Z,6.80
2023-12-08T16:32:05.085Z,6.80
2023-12-08T16:34:37.403Z,6.80
2023-12-08T16:37:10.030Z,6.90
2023-12-08T16:39:44.233Z,6.90
2023-12-08T16:42:21.525Z,6.90
2023-12-08T16:44:54.745Z,6.90
2023-12-08T16:47:27.820Z,6.90
2023-12-08T16:50:00.474Z,6.90
2023-12-08T16:52:32.859Z,6.90
2023-12-08T16:55:10.301Z,7.00
2023-12-08T16:57:45.296Z,6.90
2023-12-08T17:00:19.269Z,6.90
2023-12-08T17:02:51.703Z,6.90
2023-12-08T17:05:23.945Z,7.00
2023-12-08T17:07:56.211Z,6.90
2023-12-08T17:10:29.161Z,6.90
2023-12-08T17:13:04.153Z,6.90
2023-12-08T17:15:37.117Z,7.00
2023-12-08T17:18:10.030Z,6.90
2023-12-08T17:20:42.274Z,6.90
2023-12-08T17:23:16.484Z,6.90
2023-12-08T17:25:48.755Z,6.90
2023-12-08T17:28:23.666Z,6.90
2023-12-08T17:30:59.580Z,6.90
2023-12-08T17:33:32.241Z,7.10
2023-12-08T17:36:05.360Z,7.50
2023-12-08T17:38:37.532Z,8.00
2023-12-08T17:41:12.560Z,8.40
2023-12-08T17:43:47.919Z,8.80
2023-12-08T17:46:20.328Z,9.20
2023-12-08T17:48:52.605Z,9.60
2023-12-08T17:51:25.063Z,9.90
2023-12-08T17:53:57.266Z,10.20
2023-12-08T17:56:30.748Z,10.50
2023-12-08T17:59:05.659Z,10.80
2023-12-08T18:01:41.080Z,11.00
2023-12-08T18:04:14.436Z,11.30
2023-12-08T18:06:46.797Z,11.50
2023-12-08T18:09:19.099Z,11.60
2023-12-08T18:11:51.272Z,11.70
2023-12-08T18:14:26.530Z,11.90
2023-12-08T18:16:58.711Z,12.10
2023-12-08T18:19:31.595Z,12.20
2023-12-08T18:22:07.113Z,12.30
2023-12-08T18:24:41.005Z,12.40
2023-12-08T18:27:23.623Z,12.50
2023-12-08T18:30:10.407Z,12.50
2023-12-08T18:32:43.421Z,12.60
2023-12-08T18:35:16.626Z,12.70
2023-12-08T18:37:49.145Z,12.70
2023-12-08T18:40:21.550Z,12.80
2023-12-08T18:42:53.845Z,12.80
2023-12-08T18:45:28.731Z,12.80
2023-12-08T18:48:01.249Z,12.90
2023-12-08T18:50:33.580Z,12.90
2023-12-08T18:53:05.774Z,12.90
2023-12-08T18:55:38.211Z,13.00
2023-12-08T18:58:13.318Z,13.00
2023-12-08T19:00:48.498Z,13.00
2023-12-08T19:03:21.059Z,13.10
2023-12-08T19:05:53.885Z,13.10
2023-12-08T19:08:26.598Z,13.10
2023-12-08T19:10:58.985Z,13.10
2023-12-08T19:13:31.182Z,13.10
2023-12-08T19:16:06.459Z,13.10
2023-12-08T19:18:38.815Z,13.10
2023-12-08T19:21:12.159Z,13.20
2023-12-08T19:23:44.435Z,13.20
2023-12-08T19:26:16.652Z,13.20
2023-12-08T19:28:49.034Z,13.20
2023-12-08T19:31:23.889Z,13.20
2023-12-08T19:33:56.253Z,13.20
2023-12-08T19:36:29.361Z,13.30
2023-12-08T19:39:08.506Z,13.30
2023-12-08T19:41:40.873Z,13.30
2023-12-08T19:44:13.180Z,13.30
2023-12-08T19:46:50.923Z,13.30
2023-12-08T19:49:23.372Z,13.30
2023-12-08T19:51:55.727Z,13.30
2023-12-08T19:54:28.107Z,13.40
2023-12-08T19:57:03.791Z,13.40
2023-12-08T19:59:36.263Z,13.40
2023-12-08T20:02:11.281Z,13.40
2023-12-08T20:04:43.785Z,13.40
2023-12-08T20:07:16.298Z,13.50
2023-12-08T20:09:48.956Z,13.40
2023-12-08T20:12:21.468Z,13.50
2023-12-08T20:14:53.728Z,13.50
2023-12-08T20:17:28.827Z,13.50
2023-12-08T20:20:01.504Z,13.50
2023-12-08T20:22:33.787Z,13.50
2023-12-08T20:25:07.398Z,13.60
2023-12-08T20:27:39.737Z,13.60
2023-12-08T20:30:13.899Z,13.60
2023-12-08T20:32:50.043Z,13.50
2023-12-08T20:35:22.348Z,13.20
2023-12-08T20:37:55.736Z,12.80
2023-12-08T20:40:27.998Z,12.40
2023-12-08T20:43:00.201Z,12.20
2023-12-08T20:45:32.517Z,12.20
2023-12-08T20:48:07.519Z,12.30
2023-12-08T20:50:40.007Z,12.40
2023-12-08T20:53:12.482Z,12.50
2023-12-08T20:55:45.395Z,12.60
2023-12-08T20:58:17.686Z,12.60
2023-12-08T21:00:50.049Z,12.70
2023-12-08T21:03:25.161Z,12.80
2023-12-08T21:05:57.791Z,12.90
2023-12-08T21:08:30.097Z,13.00
2023-12-08T21:11:02.588Z,13.00
2023-12-08T21:13:34.923Z,13.10
2023-12-08T21:16:08.122Z,13.10
2023-12-08T21:18:43.158Z,13.20
2023-12-08T21:21:15.533Z,13.20
2023-12-08T21:23:47.728Z,13.30
2023-12-08T21:26:19.975Z,13.30
2023-12-08T21:28:52.153Z,13.30
2023-12-08T21:31:24.322Z,13.40
2023-12-08T21:33:59.343Z,13.30
2023-12-08T21:36:34.099Z,13.40
2023-12-08T21:39:06.718Z,13.40
2023-12-08T21:41:39.016Z,13.40
2023-12-08T21:44:11.341Z,13.40
2023-12-08T21:46:43.605Z,13.40
2023-12-08T21:49:18.771Z,13.50
2023-12-08T21:51:51.131Z,13.40
2023-12-08T21:54:23.420Z,13.40
2023-12-08T21:56:55.943Z,13.40
2023-12-08T21:59:28.892Z,13.50
2023-12-08T22:02:01.104Z,13.50
2023-12-08T22:04:35.978Z,13.50
2023-12-08T22:07:08.171Z,13.50
2023-12-08T22:09:40.333Z,13.50
2023-12-08T22:12:13.015Z,13.60
2023-12-08T22:14:45.267Z,13.50
2023-12-08T22:17:17.485Z,13.50
2023-12-08T22:19:52.356Z,13.60
2023-12-08T22:22:24.575Z,13.50
2023-12-08T22:24:56.805Z,13.50
2023-12-08T22:27:30.521Z,13.50
2023-12-08T22:30:04.816Z,13.60
2023-12-08T22:32:37.235Z,13.60
2023-12-08T22:35:12.331Z,13.60
2023-12-08T22:37:44.808Z,13.60
2023-12-08T22:40:17.061Z,13.60
2023-12-08T22:42:49.322Z,13.60
2023-12-08T22:45:21.559Z,13.60
2023-12-08T22:47:53.848Z,13.60
2023-12-08T22:50:35.491Z,13.60
2023-12-08T22:53:11.668Z,13.70
2023-12-08T22:55:44.417Z,13.60
2023-12-08T22:58:16.740Z,13.70
2023-12-08T23:00:52.438Z,13.70
2023-12-08T23:03:24.699Z,13.60
2023-12-08T23:06:01.024Z,13.60
2023-12-08T23:08:33.358Z,13.60
2023-12-08T23:11:05.564Z,13.60
2023-12-08T23:13:37.701Z,13.60
2023-12-08T23:16:10.202Z,13.60
2023-12-08T23:18:42.724Z,13.60
2023-12-08T23:21:17.774Z,13.60
2023-12-08T23:23:49.987Z,13.60
2023-12-08T23:26:22.241Z,13.60
2023-12-08T23:28:54.463Z,13.60
2023-12-08T23:31:26.876Z,13.60
2023-12-08T23:33:59.406Z,13.60
2023-12-08T23:36:34.364Z,13.60
2023-12-08T23:39:06.811Z,13.60
2023-12-08T23:41:39.035Z,13.40
2023-12-08T23:44:11.236Z,13.20
2023-12-08T23:46:43.520Z,12.80
2023-12-08T23:49:18.751Z,12.40
2023-12-08T23:51:53.787Z,12.10
2023-12-08T23:54:26.576Z,11.70
2023-12-08T23:56:58.873Z,11.30
2023-12-08T23:59:31.121Z,11.00
